Time;durP1;ratioP1;P1;durP2;ratioP2;P2;SDS_P1;SDS_P2;PMS_P1;PMS_P2;Temp;Humidity;BMP_temperature;BMP_pressure;BME280_temperature;BME280_humidity;BME280_pressure;Samples;Min_cycle;Max_cycle;Signal;HPM_P1;HPM_P2
2021/08/28 00:00:58;;;;;;;;;2.75;2.00;;;;;16.59;56.60;101375.00;5097513;27;71064;-60
2021/08/28 00:03:24;;;;;;;;;5.00;2.00;;;;;16.57;56.81;101366.34;5098378;27;45350;-61
2021/08/28 00:05:49;;;;;;;;;4.25;2.00;;;;;16.54;56.81;101364.00;5098565;27;45229;-61
2021/08/28 00:08:15;;;;;;;;;3.75;2.00;;;;;16.50;57.33;101366.16;5098534;27;45237;-61
2021/08/28 00:10:40;;;;;;;;;2.25;2.00;;;;;16.46;57.31;101362.13;5098177;27;49482;-61
2021/08/28 00:13:06;;;;;;;;;2.50;1.50;;;;;16.43;57.23;101357.97;5098118;27;49835;-60
2021/08/28 00:15:31;;;;;;;;;3.50;2.25;;;;;16.38;57.64;101354.97;5098087;27;45904;-60
2021/08/28 00:17:56;;;;;;;;;2.25;1.50;;;;;16.36;57.74;101353.44;5097397;27;68411;-60
2021/08/28 00:20:22;;;;;;;;;2.00;1.50;;;;;16.33;58.19;101357.25;5098031;27;46087;-60
2021/08/28 00:22:47;;;;;;;;;5.25;3.00;;;;;16.28;58.21;101354.22;5097800;27;45401;-61
2021/08/28 00:25:13;;;;;;;;;3.50;1.50;;;;;16.25;58.24;101349.22;5098349;27;45387;-60
2021/08/28 00:27:38;;;;;;;;;1.50;1.00;;;;;16.24;58.38;101347.56;5097204;27;69458;-60
2021/08/28 00:30:04;;;;;;;;;3.00;3.00;;;;;16.19;58.81;101349.81;5097163;27;67645;-60
2021/08/28 00:32:29;;;;;;;;;3.00;2.00;;;;;16.14;58.87;101348.47;5097961;27;45417;-61
2021/08/28 00:34:55;;;;;;;;;2.25;2.00;;;;;16.13;58.76;101351.28;5097110;27;67664;-60
2021/08/28 00:37:20;;;;;;;;;3.00;2.00;;;;;16.12;58.95;101349.63;5096964;27;67891;-61
2021/08/28 00:39:45;;;;;;;;;1.75;1.75;;;;;16.09;59.23;101347.28;5096222;27;68099;-61
2021/08/28 00:42:11;;;;;;;;;3.50;1.00;;;;;16.07;59.26;101355.34;5097631;27;45493;-60
2021/08/28 00:44:38;;;;;;;;;4.25;3.25;;;;;16.04;59.45;101360.16;5097906;27;45529;-61
2021/08/28 00:47:03;;;;;;;;;2.50;2.25;;;;;16.00;59.52;101357.81;5097428;27;45165;-60
2021/08/28 00:49:29;;;;;;;;;2.00;2.00;;;;;15.97;59.77;101351.94;5097048;27;63585;-60
2021/08/28 00:51:54;;;;;;;;;1.75;1.00;;;;;15.96;59.76;101358.22;5096821;27;67801;-61
2021/08/28 00:54:19;;;;;;;;;2.00;2.00;;;;;15.94;60.13;101349.59;5096892;27;65659;-59
2021/08/28 00:56:45;;;;;;;;;2.75;2.75;;;;;15.91;60.07;101352.56;5078612;27;63431;-60
2021/08/28 00:59:10;;;;;;;;;3.00;1.75;;;;;15.90;60.21;101354.38;5096544;27;72492;-61
2021/08/28 01:01:37;;;;;;;;;1.75;1.25;;;;;15.87;60.21;101346.72;5096441;27;73570;-61
2021/08/28 01:04:02;;;;;;;;;3.25;2.50;;;;;15.85;60.61;101346.88;5097580;27;45310;-61
2021/08/28 01:06:42;;;;;;;;;1.75;1.75;;;;;15.84;60.43;101339.06;5062485;27;45320;-60
2021/08/28 01:09:14;;;;;;;;;4.00;2.25;;;;;15.83;60.46;101346.19;5079303;27;46023;-60
2021/08/28 01:12:17;;;;;;;;;3.50;2.25;;;;;15.80;60.91;101348.28;5079147;27;45772;-60
2021/08/28 01:14:44;;;;;;;;;1.75;1.75;;;;;15.77;60.69;101344.13;5065121;27;45601;-61
2021/08/28 01:17:10;;;;;;;;;3.75;2.50;;;;;15.77;60.72;101341.47;5097412;27;45495;-62
2021/08/28 01:19:35;;;;;;;;;1.75;1.75;;;;;15.76;61.17;101342.47;5061950;27;46255;-60
2021/08/28 01:22:04;;;;;;;;;3.00;2.00;;;;;15.74;61.05;101347.09;5078812;27;45705;-61
2021/08/28 01:24:30;;;;;;;;;2.00;2.00;;;;;15.70;61.19;101348.38;5062710;27;45435;-60
2021/08/28 01:27:01;;;;;;;;;6.25;1.75;;;;;15.67;61.68;101349.47;5061881;27;49453;-61
2021/08/28 01:29:31;;;;;;;;;3.75;2.50;;;;;15.67;61.66;101348.66;5097188;27;46035;-61
2021/08/28 01:31:57;;;;;;;;;3.00;2.00;;;;;15.66;61.69;101347.81;5079131;27;45893;-61
2021/08/28 01:34:22;;;;;;;;;2.00;2.00;;;;;15.64;61.68;101341.81;5097272;27;45598;-62
2021/08/28 01:36:48;;;;;;;;;5.75;1.75;;;;;15.64;61.54;101341.81;5061993;27;45553;-61
2021/08/28 01:39:13;;;;;;;;;5.00;2.25;;;;;15.59;61.89;101341.47;5078694;27;50376;-60
2021/08/28 01:41:39;;;;;;;;;2.50;2.50;;;;;15.55;61.74;101340.91;5097100;27;45299;-60
2021/08/28 01:44:07;;;;;;;;;3.75;2.50;;;;;15.53;61.87;101342.06;5061929;27;45424;-60
2021/08/28 01:46:33;;;;;;;;;2.50;2.50;;;;;15.48;62.20;101331.09;5062125;27;45450;-61
2021/08/28 01:48:58;;;;;;;;;1.75;1.75;;;;;15.46;62.46;101336.50;5096266;27;65602;-60
2021/08/28 01:51:24;;;;;;;;;2.25;1.50;;;;;15.42;62.24;101330.69;5082073;27;45317;-60
2021/08/28 01:53:49;;;;;;;;;4.00;3.25;;;;;15.41;62.27;101334.31;5082032;27;50868;-60
2021/08/28 01:56:15;;;;;;;;;5.75;2.50;;;;;15.39;62.39;101330.97;5081747;27;56603;-60
2021/08/28 01:58:40;;;;;;;;;2.75;2.00;;;;;15.39;62.87;101330.13;5081180;27;75561;-62
2021/08/28 02:01:05;;;;;;;;;3.00;1.75;;;;;15.39;62.56;101338.09;5081224;27;71299;-60
2021/08/28 02:03:31;;;;;;;;;4.00;1.50;;;;;15.37;62.95;101342.69;5099515;27;64721;-61
2021/08/28 02:06:05;;;;;;;;;6.00;2.50;;;;;15.34;63.14;101337.72;5099614;27;66536;-61
2021/08/28 02:08:42;;;;;;;;;5.50;2.25;;;;;15.31;62.99;101343.31;5065153;27;45274;-59
2021/08/28 02:11:14;;;;;;;;;4.00;3.00;;;;;15.30;62.82;101342.47;5081624;27;45438;-61
2021/08/28 02:13:43;;;;;;;;;3.50;2.25;;;;;15.30;63.35;101342.47;5100019;27;45240;-60
2021/08/28 02:16:10;;;;;;;;;5.50;2.25;;;;;15.27;63.50;101345.41;5082181;27;45578;-60
2021/08/28 02:18:42;;;;;;;;;2.00;1.75;;;;;15.24;63.29;101338.59;5065171;27;45951;-60
2021/08/28 02:21:07;;;;;;;;;3.25;1.75;;;;;15.24;63.58;101341.25;5064917;27;52873;-61
2021/08/28 02:23:42;;;;;;;;;2.00;2.00;;;;;15.21;63.19;101349.47;5064099;27;67445;-60
2021/08/28 02:26:14;;;;;;;;;2.25;1.50;;;;;15.20;63.35;101347.81;5066012;27;45501;-60
2021/08/28 02:28:45;;;;;;;;;4.00;1.75;;;;;15.17;63.71;101356.03;5081695;27;46358;-60
2021/08/28 02:31:11;;;;;;;;;2.75;2.00;;;;;15.14;63.78;101358.97;5064953;27;49082;-60
2021/08/28 02:33:36;;;;;;;;;3.75;2.50;;;;;15.12;63.83;101358.28;5080786;27;67017;-60
2021/08/28 02:36:02;;;;;;;;;4.50;1.50;;;;;15.09;63.85;101356.78;5081725;27;45306;-60
2021/08/28 02:38:27;;;;;;;;;1.50;1.50;;;;;15.09;64.04;101361.22;5081568;27;45288;-60
2021/08/28 02:40:57;;;;;;;;;5.00;1.75;;;;;15.08;64.43;101359.56;5080657;27;66696;-60
2021/08/28 02:43:24;;;;;;;;;5.25;3.75;;;;;15.04;64.23;101358.19;5064986;27;45389;-60
2021/08/28 02:45:49;;;;;;;;;3.00;3.00;;;;;15.03;63.94;101360.00;5064621;27;45392;-60
2021/08/28 02:48:17;;;;;;;;;5.25;2.50;;;;;15.00;64.07;101357.66;5080583;27;68618;-60
2021/08/28 02:50:42;;;;;;;;;4.00;1.50;;;;;14.97;64.06;101357.94;5081668;27;45374;-61
2021/08/28 02:53:08;;;;;;;;;5.75;3.50;;;;;14.97;64.31;101355.28;5080619;27;61254;-60
2021/08/28 02:55:33;;;;;;;;;1.50;1.50;;;;;14.95;64.15;101350.13;5080477;27;70471;-60
2021/08/28 02:57:59;;;;;;;;;4.00;3.00;;;;;14.92;64.83;101355.72;5080820;27;45612;-60
2021/08/28 03:00:24;;;;;;;;;3.00;3.00;;;;;14.88;64.42;101345.56;5063474;27;66471;-60
2021/08/28 03:02:49;;;;;;;;;4.50;1.75;;;;;14.85;64.74;101349.31;5062643;27;68272;-60
2021/08/28 03:05:15;;;;;;;;;4.00;4.00;;;;;14.79;65.05;101337.50;5064350;27;45522;-60
2021/08/28 03:07:40;;;;;;;;;5.00;3.50;;;;;14.79;64.82;101342.00;5063823;27;49123;-61
2021/08/28 03:10:08;;;;;;;;;5.00;2.75;;;;;14.76;64.89;101337.81;5099329;27;45170;-60
2021/08/28 03:12:34;;;;;;;;;3.75;2.50;;;;;14.71;65.17;101332.09;5099518;27;45560;-59
2021/08/28 03:14:59;;;;;;;;;2.75;2.75;;;;;14.68;65.33;101333.22;5098566;27;65399;-60
2021/08/28 03:17:24;;;;;;;;;2.75;2.75;;;;;14.68;65.58;101332.34;5079868;27;73882;-61
2021/08/28 03:19:50;;;;;;;;;5.50;3.00;;;;;14.66;65.11;101334.31;5063490;27;58082;-60
2021/08/28 03:22:17;;;;;;;;;3.75;3.00;;;;;14.63;65.43;101335.44;5080016;27;64737;-60
2021/08/28 03:24:44;;;;;;;;;4.00;2.25;;;;;14.59;65.30;101344.63;5098091;27;46773;-61
2021/08/28 03:27:10;;;;;;;;;5.00;3.75;;;;;14.56;65.61;101334.34;5046793;27;45762;-60
2021/08/28 03:29:35;;;;;;;;;5.00;2.00;;;;;14.53;65.71;101335.47;5063971;27;45379;-60
2021/08/28 03:32:01;;;;;;;;;4.00;3.00;;;;;14.51;65.71;101347.16;5063987;27;45403;-60
2021/08/28 03:34:26;;;;;;;;;4.75;3.00;;;;;14.50;65.79;101335.75;5063973;27;45303;-60
2021/08/28 03:36:52;;;;;;;;;4.00;3.75;;;;;14.47;66.17;101335.19;5080392;27;46892;-60
2021/08/28 03:39:17;;;;;;;;;5.25;3.00;;;;;14.46;66.15;101336.16;5062591;27;73210;-60
2021/08/28 03:41:44;;;;;;;;;2.75;2.75;;;;;14.44;66.23;101332.84;5080687;27;45859;-60
2021/08/28 03:44:16;;;;;;;;;4.00;2.25;;;;;14.44;65.99;101338.13;5080680;27;45549;-60
2021/08/28 03:46:42;;;;;;;;;3.75;3.00;;;;;14.45;66.37;101331.84;5098619;27;46495;-60
2021/08/28 03:49:07;;;;;;;;;3.00;2.25;;;;;14.44;66.45;101331.03;5098735;27;45555;-60
2021/08/28 03:51:34;;;;;;;;;4.50;2.50;;;;;14.44;66.11;101319.63;5098999;27;45864;-59
2021/08/28 03:53:59;;;;;;;;;6.00;3.75;;;;;14.43;66.09;101321.44;5098679;27;45422;-60
2021/08/28 03:56:24;;;;;;;;;3.00;3.00;;;;;14.42;66.47;101327.69;5097733;27;67962;-60
2021/08/28 03:58:50;;;;;;;;;2.25;2.25;;;;;14.40;66.55;101319.91;5097504;27;73142;-60
2021/08/28 04:01:15;;;;;;;;;6.75;3.00;;;;;14.42;66.74;101332.13;5097528;27;68795;-61
2021/08/28 04:03:40;;;;;;;;;4.00;3.50;;;;;14.39;66.97;101331.44;5098541;27;45438;-60
2021/08/28 04:06:06;;;;;;;;;5.25;2.00;;;;;14.40;66.55;101319.06;5098405;27;46310;-59
2021/08/28 04:08:31;;;;;;;;;6.25;4.00;;;;;14.42;66.73;101326.84;5097459;27;69570;-61
2021/08/28 04:10:57;;;;;;;;;4.00;3.00;;;;;14.42;66.78;101317.13;5097599;27;68433;-61
2021/08/28 04:13:22;;;;;;;;;6.00;3.75;;;;;14.44;66.85;101319.63;5097357;27;45513;-60
2021/08/28 04:15:47;;;;;;;;;4.25;3.25;;;;;14.43;66.82;101318.78;5097711;27;59861;-61
2021/08/28 04:18:13;;;;;;;;;3.25;2.50;;;;;14.44;66.51;101325.75;5098025;27;49404;-61
2021/08/28 04:20:38;;;;;;;;;4.00;3.00;;;;;14.45;66.43;101326.56;5098170;27;45230;-60
2021/08/28 04:23:03;;;;;;;;;9.25;2.75;;;;;14.44;67.02;101322.25;5098195;27;45223;-60
2021/08/28 04:25:29;;;;;;;;;3.75;3.00;;;;;14.45;66.57;101327.41;5097235;27;68986;-60
2021/08/28 04:27:54;;;;;;;;;4.25;3.00;;;;;14.46;66.91;101325.59;5097039;27;45193;-60
2021/08/28 04:30:20;;;;;;;;;3.00;3.00;;;;;14.48;67.07;101337.72;5097354;27;62108;-61
2021/08/28 04:32:45;;;;;;;;;3.25;2.50;;;;;14.51;66.99;101326.00;5097773;27;50032;-60
2021/08/28 04:35:10;;;;;;;;;3.25;2.00;;;;;14.50;66.65;101321.69;5096726;27;76565;-60
2021/08/28 04:37:36;;;;;;;;;2.25;2.25;;;;;14.52;67.21;101327.66;5079683;27;45243;-60
2021/08/28 04:40:01;;;;;;;;;4.25;3.25;;;;;14.53;66.73;101331.97;5097046;27;69311;-61
2021/08/28 04:42:27;;;;;;;;;5.50;2.50;;;;;14.57;67.20;101327.25;5098080;27;45609;-59
2021/08/28 04:44:54;;;;;;;;;5.25;4.00;;;;;14.57;66.91;101328.06;5096736;27;71232;-60
2021/08/28 04:47:20;;;;;;;;;6.00;3.00;;;;;14.60;66.90;101330.44;5097883;27;45359;-61
2021/08/28 04:49:46;;;;;;;;;4.00;4.00;;;;;14.61;67.38;101325.97;5097915;27;45459;-60
2021/08/28 04:52:11;;;;;;;;;3.00;2.50;;;;;14.62;67.52;101330.28;5079050;27;53045;-60
2021/08/28 04:54:36;;;;;;;;;5.00;3.75;;;;;14.65;66.90;101338.78;5096666;27;71168;-60
2021/08/28 04:57:02;;;;;;;;;6.25;2.75;;;;;14.67;67.00;101339.47;5097673;27;45311;-60
2021/08/28 04:59:27;;;;;;;;;4.25;3.00;;;;;14.70;66.71;101341.00;5096536;27;45220;-59
2021/08/28 05:01:55;;;;;;;;;3.25;2.50;;;;;14.73;67.13;101347.84;5097654;27;45248;-60
2021/08/28 05:04:20;;;;;;;;;4.25;2.00;;;;;14.75;66.73;101341.41;5097246;27;46988;-60
2021/08/28 05:06:45;;;;;;;;;3.25;2.00;;;;;14.79;67.01;101336.69;5097492;27;45304;-60
2021/08/28 05:09:11;;;;;;;;;5.25;3.00;;;;;14.81;67.06;101354.06;5096660;27;64908;-60
2021/08/28 05:11:36;;;;;;;;;3.25;2.50;;;;;14.85;66.76;101351.97;5096525;27;70503;-60
2021/08/28 05:14:02;;;;;;;;;4.00;3.00;;;;;14.87;66.79;101347.38;5078784;27;47378;-60
2021/08/28 05:16:27;;;;;;;;;3.75;3.50;;;;;14.92;66.28;101354.88;5097125;27;49190;-61
2021/08/28 05:18:52;;;;;;;;;4.25;3.25;;;;;14.93;66.46;101357.38;5096405;27;65161;-60
2021/08/28 05:21:18;;;;;;;;;4.25;1.50;;;;;14.94;66.81;101353.75;5096086;27;68415;-61
2021/08/28 05:23:43;;;;;;;;;3.50;3.00;;;;;14.94;66.37;101353.75;5095807;27;68505;-60
2021/08/28 05:26:08;;;;;;;;;4.50;3.25;;;;;14.96;66.92;101350.97;5096018;27;67370;-59
2021/08/28 05:28:34;;;;;;;;;2.75;2.00;;;;;14.97;66.62;101352.66;5097028;27;48603;-61
2021/08/28 05:30:59;;;;;;;;;3.25;2.00;;;;;14.98;66.40;101354.31;5096171;27;69630;-61
2021/08/28 05:33:25;;;;;;;;;3.50;2.25;;;;;14.97;66.61;101350.00;5097061;27;45339;-59
2021/08/28 05:35:50;;;;;;;;;3.00;2.75;;;;;14.96;66.38;101346.50;5096386;27;64275;-60
2021/08/28 05:38:15;;;;;;;;;4.00;2.25;;;;;14.98;66.69;101346.38;5097207;27;46122;-60
2021/08/28 05:40:41;;;;;;;;;2.25;2.25;;;;;15.01;66.72;101353.19;5096890;27;50841;-60
2021/08/28 05:43:06;;;;;;;;;4.75;3.25;;;;;15.03;66.54;101349.41;5096051;27;67499;-59
2021/08/28 05:45:32;;;;;;;;;5.50;3.25;;;;;15.07;66.68;101357.88;5095958;27;73208;-60
2021/08/28 05:47:57;;;;;;;;;2.75;1.25;;;;;15.08;66.46;101354.25;5097351;27;45430;-60
2021/08/28 05:50:22;;;;;;;;;5.50;3.50;;;;;15.11;66.61;101356.63;5096937;27;45390;-60
2021/08/28 05:52:48;;;;;;;;;3.50;2.25;;;;;15.14;66.83;101358.97;5096681;27;46059;-61
2021/08/28 05:55:14;;;;;;;;;5.00;2.50;;;;;15.14;66.79;101359.78;5096709;27;45340;-60
2021/08/28 05:57:41;;;;;;;;;2.75;2.75;;;;;15.16;66.68;101361.47;5097039;27;45457;-61
2021/08/28 06:00:06;;;;;;;;;3.25;2.25;;;;;15.18;66.99;101364.81;5096816;27;45479;-60
2021/08/28 06:02:32;;;;;;;;;6.00;3.50;;;;;15.19;67.13;101364.66;5095279;27;46014;-60
2021/08/28 06:04:57;;;;;;;;;5.75;3.25;;;;;15.21;66.70;101360.06;5095608;27;69854;-61
2021/08/28 06:07:22;;;;;;;;;4.00;2.25;;;;;15.24;66.81;101366.88;5095551;27;69420;-60
2021/08/28 06:09:48;;;;;;;;;3.75;3.00;;;;;15.27;66.47;101364.78;5096128;27;60570;-60
2021/08/28 06:12:13;;;;;;;;;3.50;3.50;;;;;15.28;66.52;101366.44;5096479;27;45357;-61
2021/08/28 06:14:39;;;;;;;;;3.75;3.00;;;;;15.30;66.98;101368.13;5096655;27;45471;-60
2021/08/28 06:17:04;;;;;;;;;5.25;3.25;;;;;15.32;66.68;101371.44;5095988;27;55900;-60
2021/08/28 06:19:29;;;;;;;;;6.00;3.00;;;;;15.32;66.74;101369.63;5096387;27;45263;-60
2021/08/28 06:21:55;;;;;;;;;3.50;2.50;;;;;15.33;66.89;101367.81;5095241;27;75660;-60
2021/08/28 06:24:20;;;;;;;;;5.00;2.75;;;;;15.35;66.90;101368.50;5095842;27;57844;-60
2021/08/28 06:26:45;;;;;;;;;3.00;3.00;;;;;15.36;66.85;101367.53;5095470;27;69208;-60
2021/08/28 06:29:11;;;;;;;;;4.00;3.75;;;;;15.36;66.98;101368.34;5095621;27;63313;-60
2021/08/28 06:31:36;;;;;;;;;4.25;3.00;;;;;15.38;66.76;101371.69;5095248;27;73109;-61
2021/08/28 06:34:02;;;;;;;;;4.25;2.50;;;;;15.38;66.66;101361.09;5095534;27;62805;-60
2021/08/28 06:36:27;;;;;;;;;3.25;3.00;;;;;15.39;67.10;101368.06;5096502;27;45363;-60
2021/08/28 06:38:52;;;;;;;;;4.00;3.00;;;;;15.42;66.73;101369.56;5099013;27;65209;-59
2021/08/28 06:41:18;;;;;;;;;5.50;4.25;;;;;15.45;67.04;101371.09;5099151;27;45414;-60
2021/08/28 06:43:43;;;;;;;;;4.00;3.00;;;;;15.49;66.88;101373.28;5098718;27;45418;-60
2021/08/28 06:46:08;;;;;;;;;5.00;2.50;;;;;15.52;66.93;101369.53;5098888;27;64669;-59
2021/08/28 06:48:34;;;;;;;;;5.50;4.00;;;;;15.53;66.88;101372.03;5098706;27;65355;-60
2021/08/28 06:50:59;;;;;;;;;5.00;4.25;;;;;15.57;66.83;101380.50;5099137;27;46093;-60
2021/08/28 06:53:25;;;;;;;;;2.75;2.00;;;;;15.58;66.89;101380.34;5098979;27;57839;-60
2021/08/28 06:55:50;;;;;;;;;5.50;4.00;;;;;15.59;66.85;101383.84;5097597;27;63543;-60
2021/08/28 06:58:16;;;;;;;;;6.50;5.00;;;;;15.62;67.29;101383.56;5099175;27;45527;-60
2021/08/28 07:00:41;;;;;;;;;3.75;3.25;;;;;15.67;66.83;101383.91;5081256;27;45424;-61
2021/08/28 07:03:07;;;;;;;;;4.50;3.25;;;;;15.71;67.12;101384.47;5099090;27;50701;-60
2021/08/28 07:05:32;;;;;;;;;5.50;4.00;;;;;15.76;67.04;101387.50;5099310;27;49269;-60
2021/08/28 07:07:58;;;;;;;;;4.50;4.25;;;;;15.85;66.50;101388.41;5081101;27;45423;-60
2021/08/28 07:10:23;;;;;;;;;4.00;3.00;;;;;15.95;67.05;101386.56;5080460;27;63300;-60
2021/08/28 07:12:48;;;;;;;;;4.50;4.00;;;;;16.03;66.86;101380.50;5099187;27;45417;-60
2021/08/28 07:15:14;;;;;;;;;7.25;5.00;;;;;16.14;66.66;101377.63;5097537;27;45777;-59
2021/08/28 07:17:39;;;;;;;;;6.50;4.25;;;;;16.28;66.38;101381.56;5092317;27;62772;-60
2021/08/28 07:20:05;;;;;;;;;7.50;5.50;;;;;16.44;65.78;101386.16;5088446;27;46161;-61
2021/08/28 07:22:31;;;;;;;;;11.00;5.00;;;;;16.59;65.55;101390.91;5088896;27;45890;-60
2021/08/28 07:24:56;;;;;;;;;5.00;5.00;;;;;16.72;65.65;101391.34;5090897;27;64370;-61
2021/08/28 07:27:23;;;;;;;;;7.75;5.25;;;;;16.91;65.06;101384.97;5090056;27;45294;-60
2021/08/28 07:29:50;;;;;;;;;8.50;6.50;;;;;17.05;64.76;101391.56;5089121;27;46085;-60
2021/08/28 07:32:15;;;;;;;;;6.50;6.50;;;;;17.16;64.34;101392.28;5086415;27;46081;-61
2021/08/28 07:34:41;;;;;;;;;6.00;5.00;;;;;17.25;64.31;101401.94;5050870;27;45392;-60
2021/08/28 07:37:06;;;;;;;;;6.25;4.75;;;;;17.28;63.85;101396.31;5088853;27;45399;-61
2021/08/28 07:39:32;;;;;;;;;7.00;6.00;;;;;17.29;63.70;101395.34;5085744;27;45988;-60
2021/08/28 07:41:57;;;;;;;;;9.00;5.75;;;;;17.32;63.44;101383.53;5083778;27;45877;-60
2021/08/28 07:44:23;;;;;;;;;9.00;8.00;;;;;17.33;63.17;101382.56;5083411;27;45362;-60
2021/08/28 07:46:48;;;;;;;;;8.25;5.50;;;;;17.32;63.19;101379.09;5083072;27;64238;-60
2021/08/28 07:49:14;;;;;;;;;7.75;7.75;;;;;17.31;63.16;101389.84;5080447;27;75357;-59
2021/08/28 07:51:39;;;;;;;;;5.75;5.75;;;;;17.31;63.29;101384.53;5079671;27;45460;-61
2021/08/28 07:54:05;;;;;;;;;10.00;8.00;;;;;17.33;63.21;101391.38;5081710;27;65138;-60
2021/08/28 07:56:30;;;;;;;;;9.75;8.00;;;;;17.36;63.14;101387.53;5079607;27;64328;-60
2021/08/28 07:58:56;;;;;;;;;7.50;7.00;;;;;17.37;63.50;101388.41;5080214;27;46409;-60
2021/08/28 08:01:21;;;;;;;;;7.25;7.00;;;;;17.40;63.13;101382.75;5078442;27;65989;-60
2021/08/28 08:03:46;;;;;;;;;8.25;7.25;;;;;17.43;63.00;101375.28;5079256;27;45862;-60
2021/08/28 08:06:12;;;;;;;;;5.00;4.75;;;;;17.48;62.75;101385.47;5081845;27;49743;-60
2021/08/28 08:08:37;;;;;;;;;10.50;7.25;;;;;17.53;62.49;101383.13;5093269;27;45342;-61
2021/08/28 08:11:02;;;;;;;;;8.50;7.25;;;;;17.58;62.79;101383.47;5088608;27;68465;-60
2021/08/28 08:13:28;;;;;;;;;8.50;5.75;;;;;17.61;62.54;101374.34;5089765;27;58521;-60
2021/08/28 08:15:53;;;;;;;;;6.00;5.00;;;;;17.62;62.52;101371.53;5088862;27;45431;-60
2021/08/28 08:18:19;;;;;;;;;9.75;6.25;;;;;17.67;62.62;101370.22;5089743;27;75783;-60
2021/08/28 08:20:44;;;;;;;;;8.00;7.00;;;;;17.68;62.77;101372.72;5070535;27;45178;-60
2021/08/28 08:23:09;;;;;;;;;6.75;6.00;;;;;17.72;62.81;101376.72;5088705;27;69187;-61
2021/08/28 08:25:35;;;;;;;;;8.00;7.00;;;;;17.75;62.59;101381.69;5087105;27;65812;-60
2021/08/28 08:28:00;;;;;;;;;6.00;6.00;;;;;17.80;62.21;101387.34;5086828;27;68907;-60
2021/08/28 08:30:25;;;;;;;;;8.25;6.00;;;;;17.80;62.42;101384.69;5086217;27;73282;-60
2021/08/28 08:32:51;;;;;;;;;9.00;7.50;;;;;17.82;62.52;101394.31;5086911;27;45865;-61
2021/08/28 08:35:16;;;;;;;;;6.75;6.00;;;;;17.83;62.49;101390.66;5085607;27;45554;-60
2021/08/28 08:37:42;;;;;;;;;6.00;6.00;;;;;17.86;62.43;101399.16;5082194;27;46169;-60
2021/08/28 08:40:07;;;;;;;;;6.50;6.00;;;;;17.91;62.69;101393.34;5081175;27;66133;-60
2021/08/28 08:42:33;;;;;;;;;7.00;5.00;;;;;17.94;62.64;101393.03;5081921;27;45341;-60
2021/08/28 08:44:58;;;;;;;;;8.75;5.75;;;;;17.97;62.56;101397.19;5057371;27;45387;-60
2021/08/28 08:47:24;;;;;;;;;8.00;5.25;;;;;17.99;62.86;101396.06;5059158;27;75665;-61
2021/08/28 08:49:51;;;;;;;;;4.00;3.75;;;;;18.01;62.62;101390.59;5081217;27;46055;-60
2021/08/28 08:52:17;;;;;;;;;6.25;4.25;;;;;18.03;62.66;101394.72;5055580;27;45502;-60
2021/08/28 08:54:43;;;;;;;;;5.00;4.00;;;;;18.05;62.70;101386.56;5056990;27;48770;-60
2021/08/28 08:57:09;;;;;;;;;4.00;4.00;;;;;18.08;62.70;101391.56;5089674;27;45988;-60
2021/08/28 08:59:34;;;;;;;;;5.25;4.00;;;;;18.11;62.52;101393.91;5086302;27;45684;-61
2021/08/28 09:02:02;;;;;;;;;4.00;4.00;;;;;18.14;62.28;101400.75;5051208;27;64966;-60
2021/08/28 09:04:27;;;;;;;;;6.50;5.00;;;;;18.15;62.79;101402.41;5089868;27;45377;-60
2021/08/28 09:06:52;;;;;;;;;8.25;5.00;;;;;18.16;62.87;101398.75;5090161;27;54745;-61
2021/08/28 09:09:18;;;;;;;;;5.50;5.00;;;;;18.21;62.51;101404.41;5086865;27;71452;-61
2021/08/28 09:11:59;;;;;;;;;5.00;5.00;;;;;18.23;62.58;101410.38;5085933;27;45441;-61
2021/08/28 09:14:25;;;;;;;;;5.00;5.00;;;;;18.23;62.17;101405.88;5089662;27;45454;-61
2021/08/28 09:16:51;;;;;;;;;5.00;4.50;;;;;18.23;62.54;101408.53;5088943;27;45421;-60
2021/08/28 09:19:16;;;;;;;;;6.25;6.00;;;;;18.29;62.33;101404.38;5084530;27;45958;-60
2021/08/28 09:21:42;;;;;;;;;5.75;5.50;;;;;18.35;62.28;101408.22;5088516;27;51591;-59
2021/08/28 09:24:09;;;;;;;;;5.75;5.50;;;;;18.39;62.19;101399.72;5072223;27;45369;-61
2021/08/28 09:26:35;;;;;;;;;6.75;5.50;;;;;18.47;62.31;101398.91;5093332;27;46244;-60
2021/08/28 09:29:02;;;;;;;;;8.50;6.00;;;;;18.56;61.54;101406.88;5093558;27;45434;-58
2021/08/28 09:31:49;;;;;;;;;10.00;6.75;;;;;18.62;61.22;101406.19;5071599;27;45461;-60
2021/08/28 09:34:19;;;;;;;;;9.75;6.75;;;;;18.62;60.91;101414.19;5091014;27;45463;-61
2021/08/28 09:36:45;;;;;;;;;12.00;8.00;;;;;18.63;61.50;101411.38;5092141;27;45481;-60
2021/08/28 09:39:11;;;;;;;;;7.75;6.25;;;;;18.64;61.08;101413.03;5087847;27;61698;-61
2021/08/28 09:41:36;;;;;;;;;10.25;8.50;;;;;18.66;60.68;101412.84;5090525;27;45473;-60
2021/08/28 09:44:08;;;;;;;;;8.00;8.00;;;;;18.67;60.88;101415.38;5092262;27;45762;-58
2021/08/28 09:46:33;;;;;;;;;11.00;9.25;;;;;18.71;60.92;101413.19;5090211;27;46128;-61
2021/08/28 09:49:01;;;;;;;;;11.75;9.50;;;;;18.72;61.04;101416.69;5087325;27;71274;-60
2021/08/28 09:51:39;;;;;;;;;10.50;9.00;;;;;18.72;60.73;101406.03;5083067;27;45372;-59
2021/08/28 09:54:05;;;;;;;;;14.50;9.50;;;;;18.75;61.06;101416.34;5066689;27;46151;-60
2021/08/28 09:56:30;;;;;;;;;8.25;8.00;;;;;18.79;60.79;101410.50;5061529;27;71686;-61
2021/08/28 09:58:55;;;;;;;;;8.25;7.00;;;;;18.87;61.27;101408.84;5081413;27;45468;-60
2021/08/28 10:01:21;;;;;;;;;9.00;7.00;;;;;18.93;60.93;101403.66;5081316;27;45447;-60
2021/08/28 10:03:59;;;;;;;;;12.25;6.75;;;;;18.99;60.62;101404.84;5080223;27;45666;-60
2021/08/28 10:06:25;;;;;;;;;6.00;6.00;;;;;19.06;60.44;101399.66;5082511;27;45466;-60
2021/08/28 10:08:51;;;;;;;;;7.25;5.75;;;;;19.14;60.13;101396.97;5079665;27;45405;-61
2021/08/28 10:11:17;;;;;;;;;6.00;5.50;;;;;19.22;59.75;101396.97;5061071;27;45457;-61
2021/08/28 10:13:42;;;;;;;;;4.75;4.00;;;;;19.27;59.71;101401.75;5064199;27;45336;-60
2021/08/28 10:16:07;;;;;;;;;5.75;3.00;;;;;19.32;59.28;101393.25;5056413;27;45908;-60
2021/08/28 10:18:33;;;;;;;;;5.50;5.00;;;;;19.34;59.17;101400.06;5056211;27;48704;-60
2021/08/28 10:20:59;;;;;;;;;6.00;5.00;;;;;19.39;58.85;101397.72;5039490;27;45384;-61
2021/08/28 10:23:25;;;;;;;;;7.00;7.00;;;;;19.47;58.72;101401.34;5055189;27;65952;-61
2021/08/28 10:25:51;;;;;;;;;7.25;5.25;;;;;19.53;58.51;101395.31;5086221;27;64081;-61
2021/08/28 10:28:17;;;;;;;;;5.75;3.50;;;;;19.60;58.29;101401.63;5058975;27;45502;-61
2021/08/28 10:30:43;;;;;;;;;4.50;4.00;;;;;19.69;57.46;101397.88;5062110;27;45554;-59
2021/08/28 10:33:08;;;;;;;;;3.75;3.75;;;;;19.78;57.36;101400.50;5050334;27;65848;-61
2021/08/28 10:35:34;;;;;;;;;7.75;4.00;;;;;19.87;56.70;101391.44;5095472;27;45855;-60
2021/08/28 10:37:59;;;;;;;;;4.25;3.75;;;;;19.98;56.19;101399.09;5055030;27;45506;-60
2021/08/28 10:40:27;;;;;;;;;3.25;2.75;;;;;20.12;55.96;101389.47;5090333;27;45577;-61
2021/08/28 10:42:53;;;;;;;;;4.50;3.75;;;;;20.30;55.72;101394.50;5093011;27;45589;-60
2021/08/28 10:45:26;;;;;;;;;4.75;2.50;;;;;20.50;55.39;101391.31;5092129;27;46027;-61
2021/08/28 10:47:55;;;;;;;;;4.00;3.25;;;;;20.72;54.89;101384.28;5092977;27;46020;-60
2021/08/28 10:50:21;;;;;;;;;4.25;2.50;;;;;21.01;54.96;101387.16;5092362;27;46214;-61
2021/08/28 10:52:48;;;;;;;;;2.00;2.00;;;;;21.27;53.02;101381.34;5071742;27;45276;-60
2021/08/28 10:55:14;;;;;;;;;7.00;7.00;;;;;21.40;51.97;101382.53;5089628;27;46079;-61
2021/08/28 10:57:40;;;;;;;;;4.75;3.00;;;;;21.43;52.60;101391.00;5071132;27;45524;-60
2021/08/28 11:00:16;;;;;;;;;4.00;3.00;;;;;21.46;52.15;101379.09;5087275;27;45482;-61
2021/08/28 11:03:01;;;;;;;;;2.25;2.25;;;;;21.45;51.97;101375.59;5084702;27;45478;-61
2021/08/28 11:05:30;;;;;;;;;3.25;3.25;;;;;21.52;52.14;101378.31;5067505;27;46319;-61
2021/08/28 11:07:56;;;;;;;;;5.00;3.00;;;;;21.57;51.32;101377.78;5084884;27;45910;-61
2021/08/28 11:10:25;;;;;;;;;3.00;3.00;;;;;21.67;51.64;101370.31;5086869;27;45486;-60
2021/08/28 11:13:01;;;;;;;;;3.00;3.00;;;;;21.74;51.24;101376.53;5083654;27;45666;-60
2021/08/28 11:15:29;;;;;;;;;3.00;2.50;;;;;21.72;50.79;101373.25;5087544;27;46327;-61
2021/08/28 11:18:02;;;;;;;;;5.75;4.00;;;;;21.73;51.21;101371.41;5085083;27;45279;-60
2021/08/28 11:20:39;;;;;;;;;3.00;3.00;;;;;21.75;51.46;101362.16;5083548;27;45516;-60